Time;durP1;ratioP1;P1;durP2;ratioP2;P2;SDS_P1;SDS_P2;PMS_P1;PMS_P2;Temp;Humidity;BMP_temperature;BMP_pressure;BME280_temperature;BME280_humidity;BME280_pressure;Samples;Min_cycle;Max_cycle;Signal;HPM_P1;HPM_P2
2022/07/15 00:00:17;;;;;;;7.85;2.78;;;14.60;99.90;;;;;;4992104;28;20030;-67
2022/07/15 00:02:43;;;;;;;9.65;1.52;;;14.60;99.90;;;;;;5009601;28;20033;-67
2022/07/15 00:05:09;;;;;;;7.18;1.60;;;14.60;99.90;;;;;;5009928;28;20041;-67
2022/07/15 00:07:35;;;;;;;5.45;1.40;;;14.50;99.90;;;;;;4998703;28;20033;-67
2022/07/15 00:10:14;;;;;;;6.88;2.67;;;14.40;99.10;;;;;;5008868;28;20037;-67
2022/07/15 00:12:56;;;;;;;6.25;2.50;;;14.60;99.90;;;;;;5009612;28;20092;-67
2022/07/15 00:15:25;;;;;;;6.07;1.33;;;14.30;99.90;;;;;;4984806;28;20038;-68
2022/07/15 00:17:52;;;;;;;8.38;1.67;;;14.40;99.90;;;;;;5009773;28;20053;-68
2022/07/15 00:20:19;;;;;;;5.63;2.22;;;14.30;99.90;;;;;;4991593;28;20022;-68
2022/07/15 00:22:45;;;;;;;5.05;1.40;;;;;;;;;;5012437;28;20112;-69
2022/07/15 00:25:12;;;;;;;5.55;1.42;;;14.30;99.90;;;;;;5012841;28;20037;-69
2022/07/15 00:27:55;;;;;;;5.45;1.67;;;14.30;99.90;;;;;;5013232;28;20105;-68
2022/07/15 00:30:22;;;;;;;6.85;1.90;;;14.30;99.90;;;;;;5012950;28;20476;-68
2022/07/15 00:32:48;;;;;;;4.35;1.05;;;14.30;99.90;;;;;;5013038;28;20026;-68
2022/07/15 00:35:14;;;;;;;7.10;1.80;;;14.40;99.90;;;;;;5012207;28;20026;-68
2022/07/15 00:37:40;;;;;;;5.50;2.00;;;14.40;99.90;;;;;;5000490;28;20040;-67
2022/07/15 00:40:06;;;;;;;5.93;1.38;;;14.40;99.90;;;;;;5002422;28;20035;-68
2022/07/15 00:42:44;;;;;;;4.07;1.13;;;14.40;99.90;;;;;;5009744;28;20515;-69
2022/07/15 00:45:21;;;;;;;5.90;2.65;;;15.00;99.70;;;;;;5012654;28;20064;-68
2022/07/15 00:47:52;;;;;;;6.68;1.55;;;14.30;99.90;;;;;;5012685;28;20029;-68
2022/07/15 00:50:19;;;;;;;8.27;1.60;;;14.30;99.90;;;;;;5012602;28;20510;-68
2022/07/15 00:52:48;;;;;;;4.85;1.25;;;14.20;99.90;;;;;;5012031;28;20018;-68
2022/07/15 00:55:14;;;;;;;4.47;1.15;;;14.30;99.90;;;;;;5012516;28;20025;-68
2022/07/15 00:57:42;;;;;;;3.65;1.02;;;14.20;99.90;;;;;;5012037;28;20467;-68
2022/07/15 01:00:10;;;;;;;4.55;1.80;;;14.10;99.90;;;;;;5012763;28;20091;-68
2022/07/15 01:02:37;;;;;;;4.22;1.75;;;13.90;99.90;;;;;;5012361;28;20104;-68
2022/07/15 01:05:04;;;;;;;4.72;1.48;;;14.20;99.90;;;;;;5012661;28;20033;-69
2022/07/15 01:07:30;;;;;;;6.65;1.42;;;14.20;99.90;;;;;;5005976;28;20494;-68
2022/07/15 01:09:56;;;;;;;9.95;2.50;;;;;;;;;;4994422;28;20034;-68
2022/07/15 01:12:22;;;;;;;2.78;1.25;;;14.20;99.90;;;;;;4992645;28;20034;-67
2022/07/15 01:14:48;;;;;;;8.65;1.65;;;14.30;99.90;;;;;;4995496;28;20050;-68
2022/07/15 01:17:15;;;;;;;2.75;1.17;;;14.30;99.90;;;;;;4992502;28;20395;-68
2022/07/15 01:19:40;;;;;;;3.90;1.38;;;14.50;99.90;;;;;;4992805;28;20108;-68
2022/07/15 01:22:07;;;;;;;4.32;1.45;;;14.50;99.90;;;;;;4995226;28;20097;-68
2022/07/15 01:24:33;;;;;;;7.28;2.60;;;;;;;;;;5009377;28;20438;-67
2022/07/15 01:26:59;;;;;;;4.60;1.42;;;14.60;99.90;;;;;;5005177;28;20053;-68
2022/07/15 01:29:24;;;;;;;4.85;1.52;;;14.70;99.90;;;;;;5012142;28;20026;-68
2022/07/15 01:31:50;;;;;;;4.45;1.75;;;14.70;99.90;;;;;;5011492;28;20034;-68
2022/07/15 01:34:16;;;;;;;5.00;1.38;;;14.80;99.90;;;;;;5011637;28;20101;-69
2022/07/15 01:36:41;;;;;;;11.48;1.80;;;14.70;99.90;;;;;;5011295;28;20391;-69
2022/07/15 01:39:07;;;;;;;5.65;1.65;;;14.70;99.90;;;;;;5011720;28;20102;-68
2022/07/15 01:41:33;;;;;;;5.53;1.92;;;;;;;;;;4993640;28;20034;-67
2022/07/15 01:43:58;;;;;;;4.28;1.70;;;14.60;99.90;;;;;;5011624;28;20088;-67
2022/07/15 01:46:24;;;;;;;7.15;1.73;;;14.40;99.90;;;;;;5011531;28;20034;-68
2022/07/15 01:51:33;;;;;;;5.07;1.45;;;14.40;99.90;;;;;;4986424;28;20109;-67
2022/07/15 01:53:59;;;;;;;5.03;1.10;;;14.10;99.90;;;;;;5011505;28;20513;-67
2022/07/15 01:56:24;;;;;;;2.58;1.02;;;14.50;99.90;;;;;;5008195;28;20053;-68
2022/07/15 01:58:50;;;;;;;6.25;1.58;;;14.00;99.90;;;;;;4995992;28;20025;-67
2022/07/15 02:01:17;;;;;;;4.93;1.40;;;;;;;;;;5008435;28;20475;-68
2022/07/15 02:03:44;;;;;;;8.85;1.83;;;;;;;;;;5010914;28;20022;-68
2022/07/15 02:06:10;;;;;;;3.55;1.38;;;;;;;;;;5011461;28;20079;-67
2022/07/15 02:08:35;;;;;;;4.60;1.50;;;14.70;99.90;;;;;;5011125;28;20030;-67
2022/07/15 02:11:01;;;;;;;9.82;1.67;;;;;;;;;;5011406;28;20046;-67
2022/07/15 02:13:27;;;;;;;3.17;1.13;;;;;;;;;;5010731;28;20507;-68
2022/07/15 02:15:53;;;;;;;5.38;1.27;;;;;;;;;;5011096;28;20033;-67
2022/07/15 02:18:18;;;;;;;6.22;1.27;;;14.80;99.90;;;;;;5010392;28;20026;-68
2022/07/15 02:20:45;;;;;;;6.13;1.80;;;14.80;99.90;;;;;;5011014;28;20040;-68
2022/07/15 02:23:11;;;;;;;6.43;1.58;;;;;;;;;;5008506;28;20479;-68
2022/07/15 02:25:37;;;;;;;11.00;1.83;;;14.80;99.90;;;;;;5008465;28;20101;-67
2022/07/15 02:28:05;;;;;;;9.02;1.60;;;14.90;99.90;;;;;;5011192;28;20494;-68
2022/07/15 02:30:36;;;;;;;3.92;1.40;;;15.00;99.90;;;;;;5010568;28;20037;-68
2022/07/15 02:33:03;;;;;;;6.07;2.03;;;14.90;99.90;;;;;;5011156;28;20026;-68
2022/07/15 02:35:29;;;;;;;4.60;1.40;;;14.80;99.90;;;;;;5010330;28;20030;-67
2022/07/15 02:37:55;;;;;;;5.43;1.67;;;;;;;;;;5010578;28;20541;-67
2022/07/15 02:40:21;;;;;;;8.38;1.83;;;14.80;99.90;;;;;;5010592;28;20109;-67
2022/07/15 02:42:52;;;;;;;5.90;1.67;;;14.70;99.90;;;;;;5009808;28;20428;-68
2022/07/15 02:45:19;;;;;;;5.95;1.65;;;14.60;99.90;;;;;;5010252;28;20018;-67
2022/07/15 02:47:45;;;;;;;4.82;1.33;;;14.70;99.90;;;;;;5009870;28;20014;-67
2022/07/15 02:50:11;;;;;;;6.15;1.38;;;14.70;99.90;;;;;;5010487;28;20452;-68
2022/07/15 02:52:36;;;;;;;8.02;1.58;;;14.80;99.90;;;;;;5005429;28;20097;-67
2022/07/15 02:55:03;;;;;;;5.65;1.40;;;14.70;99.90;;;;;;4992149;28;20136;-67
2022/07/15 02:57:29;;;;;;;5.18;1.83;;;14.70;99.90;;;;;;4991456;28;20038;-67
2022/07/15 02:59:54;;;;;;;6.72;1.40;;;14.80;99.90;;;;;;5010343;28;20080;-68
2022/07/15 03:02:20;;;;;;;8.60;2.10;;;14.60;99.90;;;;;;5010042;28;20140;-67
2022/07/15 03:04:46;;;;;;;9.18;1.33;;;14.60;99.90;;;;;;5009910;28;20083;-67
2022/07/15 03:07:13;;;;;;;12.75;2.08;;;14.60;99.90;;;;;;5006944;28;20245;-67
2022/07/15 03:09:38;;;;;;;5.07;1.92;;;14.60;99.90;;;;;;5010112;28;20034;-67
2022/07/15 03:12:04;;;;;;;3.53;1.40;;;14.60;99.90;;;;;;5010511;28;20408;-67
2022/07/15 03:14:30;;;;;;;7.30;1.65;;;14.50;99.90;;;;;;5009606;28;20063;-67
2022/07/15 03:16:55;;;;;;;5.60;1.90;;;14.60;99.90;;;;;;5009648;28;20026;-67
2022/07/15 03:19:21;;;;;;;3.42;1.52;;;14.40;99.90;;;;;;5009791;28;20025;-67
2022/07/15 03:21:48;;;;;;;6.75;1.73;;;14.50;99.90;;;;;;5009646;28;20034;-68
2022/07/15 03:24:13;;;;;;;7.18;1.20;;;14.40;99.90;;;;;;5009915;28;20018;-67
2022/07/15 03:26:39;;;;;;;9.60;2.08;;;14.50;99.90;;;;;;5009966;28;20368;-67
2022/07/15 03:29:05;;;;;;;3.60;1.45;;;14.50;99.90;;;;;;5009993;28;20077;-67
2022/07/15 03:31:30;;;;;;;4.93;1.48;;;14.40;99.90;;;;;;4991835;28;20064;-69
2022/07/15 03:33:56;;;;;;;5.75;1.40;;;14.20;99.90;;;;;;5009490;28;20053;-67
2022/07/15 03:36:23;;;;;;;5.28;1.63;;;14.40;99.90;;;;;;5004242;28;20038;-67
2022/07/15 03:38:51;;;;;;;8.07;2.55;;;14.40;99.90;;;;;;5004093;28;20029;-67
2022/07/15 03:41:16;;;;;;;9.32;1.73;;;14.20;99.90;;;;;;5009651;28;20479;-68
2022/07/15 03:43:42;;;;;;;4.93;1.35;;;14.20;99.90;;;;;;5009935;28;20088;-67
2022/07/15 03:46:07;;;;;;;7.40;1.60;;;14.20;99.90;;;;;;5009381;28;20038;-67
2022/07/15 03:48:33;;;;;;;4.95;1.60;;;;;;;;;;5009397;28;20026;-67
2022/07/15 03:50:59;;;;;;;4.43;1.40;;;14.30;99.90;;;;;;5009641;28;20042;-67
2022/07/15 03:53:24;;;;;;;8.68;1.83;;;14.20;99.90;;;;;;5004039;28;20062;-67
2022/07/15 03:55:50;;;;;;;3.80;1.65;;;14.10;99.90;;;;;;5012370;28;20030;-67
2022/07/15 03:58:15;;;;;;;6.55;1.58;;;14.20;99.90;;;;;;5013427;28;20467;-67
2022/07/15 04:00:41;;;;;;;3.00;1.20;;;14.10;99.90;;;;;;5012972;28;20026;-68
2022/07/15 04:03:06;;;;;;;5.63;1.48;;;14.10;99.90;;;;;;5013547;28;20030;-67
2022/07/15 04:05:32;;;;;;;4.18;1.55;;;;;;;;;;5012977;28;20036;-68
2022/07/15 04:07:58;;;;;;;8.07;1.40;;;14.20;99.90;;;;;;4997842;28;20042;-67
2022/07/15 04:10:24;;;;;;;4.72;1.25;;;;;;;;;;5011589;28;20068;-67
2022/07/15 04:12:49;;;;;;;6.18;1.30;;;14.00;99.90;;;;;;5012912;28;20026;-67
2022/07/15 04:15:15;;;;;;;4.95;2.35;;;14.10;99.90;;;;;;5012411;28;20042;-67
2022/07/15 04:17:41;;;;;;;7.38;2.28;;;;;;;;;;5013710;28;20018;-67
2022/07/15 04:20:08;;;;;;;4.47;1.83;;;14.00;99.90;;;;;;5013356;28;20017;-67
2022/07/15 04:22:44;;;;;;;4.85;1.48;;;13.90;99.90;;;;;;5012703;28;20088;-67
2022/07/15 04:25:13;;;;;;;8.13;1.60;;;13.90;99.90;;;;;;5012974;28;20088;-68
2022/07/15 04:27:39;;;;;;;5.28;1.52;;;;;;;;;;5013066;28;20052;-67
2022/07/15 04:30:06;;;;;;;7.32;2.63;;;13.80;99.90;;;;;;5012650;28;20041;-67
2022/07/15 04:32:32;;;;;;;2.70;1.27;;;;;;;;;;5012405;28;20022;-67
2022/07/15 04:34:58;;;;;;;7.85;1.60;;;;;;;;;;5013107;28;20029;-67
2022/07/15 04:37:24;;;;;;;2.05;1.08;;;13.80;99.90;;;;;;5001721;28;20029;-68
2022/07/15 04:39:49;;;;;;;6.25;1.35;;;13.80;99.90;;;;;;5012732;28;20387;-67
2022/07/15 04:42:15;;;;;;;4.10;2.13;;;13.90;99.90;;;;;;5012826;28;20037;-68
2022/07/15 04:44:41;;;;;;;4.25;1.25;;;13.80;99.90;;;;;;5012220;28;20064;-67
2022/07/15 04:47:07;;;;;;;4.32;1.73;;;;;;;;;;5013160;28;20032;-67
2022/07/15 04:52:17;;;;;;;3.65;1.10;;;13.70;99.90;;;;;;5005761;28;20096;-67
2022/07/15 04:54:43;;;;;;;5.40;1.10;;;13.80;99.90;;;;;;5004709;28;20475;-67
2022/07/15 04:57:09;;;;;;;3.17;1.20;;;;;;;;;;4992561;28;20041;-68
2022/07/15 04:59:35;;;;;;;2.67;1.10;;;14.70;99.90;;;;;;4991319;28;20019;-68
2022/07/15 05:02:01;;;;;;;5.25;1.05;;;13.70;99.90;;;;;;4993106;28;20048;-67
2022/07/15 05:04:26;;;;;;;4.65;1.52;;;13.70;99.90;;;;;;4992370;28;20464;-68
2022/07/15 05:06:52;;;;;;;3.13;1.10;;;13.70;99.90;;;;;;4991820;28;20114;-67
2022/07/15 05:09:17;;;;;;;5.95;1.27;;;13.70;99.90;;;;;;4992869;28;20097;-68
2022/07/15 05:11:43;;;;;;;5.13;1.50;;;13.70;99.90;;;;;;4992267;28;20126;-68
2022/07/15 05:14:10;;;;;;;7.15;1.88;;;13.80;99.90;;;;;;4992055;28;20046;-68
2022/07/15 05:16:35;;;;;;;7.07;1.30;;;13.80;99.90;;;;;;4992389;28;20094;-67
2022/07/15 05:19:01;;;;;;;6.97;1.40;;;14.30;99.90;;;;;;4986880;28;20055;-68
2022/07/15 05:21:27;;;;;;;8.45;1.30;;;;;;;;;;4990562;28;20018;-67
2022/07/15 05:23:53;;;;;;;5.60;1.50;;;14.00;99.90;;;;;;5005240;28;20602;-68
2022/07/15 05:26:18;;;;;;;4.78;1.83;;;14.00;99.90;;;;;;4991042;28;20030;-68
2022/07/15 05:28:44;;;;;;;3.67;1.25;;;14.10;99.90;;;;;;4991258;28;20515;-67
2022/07/15 05:31:10;;;;;;;8.48;1.90;;;;;;;;;;4992032;28;20038;-67
2022/07/15 05:33:35;;;;;;;8.80;1.60;;;14.30;99.90;;;;;;4998450;28;20018;-67
2022/07/15 05:36:01;;;;;;;8.90;2.03;;;;;;;;;;4992273;28;20030;-67
2022/07/15 05:38:27;;;;;;;9.43;1.88;;;14.30;99.90;;;;;;4991986;28;20018;-67
2022/07/15 05:40:53;;;;;;;3.35;1.45;;;14.40;99.90;;;;;;4991803;28;20472;-67
2022/07/15 05:43:19;;;;;;;3.58;1.25;;;14.50;99.90;;;;;;4997683;28;20019;-67
2022/07/15 05:45:44;;;;;;;2.92;1.50;;;14.60;99.90;;;;;;4991878;28;20104;-68
2022/07/15 05:48:10;;;;;;;6.68;1.38;;;14.80;99.90;;;;;;4992250;28;20025;-68
2022/07/15 05:50:36;;;;;;;2.80;1.40;;;14.70;99.90;;;;;;4991724;28;20534;-67
2022/07/15 05:53:02;;;;;;;6.30;1.15;;;;;;;;;;4998242;28;20037;-68
2022/07/15 05:55:28;;;;;;;8.85;1.33;;;14.90;99.90;;;;;;4997276;28;20046;-67
2022/07/15 05:57:53;;;;;;;3.67;1.08;;;14.80;99.90;;;;;;4991677;28;20080;-67
2022/07/15 06:00:19;;;;;;;3.92;1.02;;;15.10;99.90;;;;;;4991812;28;20026;-67
2022/07/15 06:02:45;;;;;;;7.82;1.45;;;15.20;99.90;;;;;;4995876;28;20034;-68
2022/07/15 06:05:10;;;;;;;5.82;1.35;;;15.30;99.90;;;;;;4991541;28;20034;-68
2022/07/15 06:07:36;;;;;;;4.45;0.80;;;15.30;99.90;;;;;;4991452;28;20035;-67
2022/07/15 06:10:04;;;;;;;6.65;1.35;;;15.40;99.90;;;;;;4996812;28;20038;-67
2022/07/15 06:12:29;;;;;;;4.10;1.10;;;15.60;99.90;;;;;;4991343;28;20133;-68
2022/07/15 06:14:55;;;;;;;9.25;1.30;;;;;;;;;;4991409;28;20129;-68
2022/07/15 06:17:21;;;;;;;11.00;1.48;;;15.70;99.90;;;;;;4991573;28;20093;-71
2022/07/15 06:19:46;;;;;;;6.35;1.65;;;16.00;99.90;;;;;;4991310;28;20109;-70
2022/07/15 06:22:13;;;;;;;6.70;1.23;;;15.50;99.90;;;;;;4999954;28;20041;-71
2022/07/15 06:24:38;;;;;;;3.33;1.10;;;15.80;99.90;;;;;;5007716;28;20026;-71
2022/07/15 06:27:04;;;;;;;4.72;0.95;;;15.70;99.90;;;;;;4993984;28;20483;-70
2022/07/15 06:29:29;;;;;;;4.63;0.98;;;16.00;99.90;;;;;;4990840;28;20434;-71
2022/07/15 06:31:55;;;;;;;7.90;1.15;;;15.70;99.90;;;;;;5002036;28;20034;-71
2022/07/15 06:34:20;;;;;;;4.03;0.95;;;16.00;99.90;;;;;;4990895;28;20460;-72
2022/07/15 06:36:46;;;;;;;4.97;0.90;;;15.90;99.90;;;;;;4991441;28;20034;-71
2022/07/15 06:39:11;;;;;;;6.72;1.30;;;16.00;99.90;;;;;;4997038;28;20471;-71
2022/07/15 06:41:37;;;;;;;5.63;0.93;;;16.20;99.90;;;;;;4990899;28;20101;-71
2022/07/15 06:44:04;;;;;;;5.82;1.35;;;16.40;99.90;;;;;;4990957;28;20038;-70
2022/07/15 06:46:29;;;;;;;6.63;0.77;;;16.30;99.90;;;;;;4990712;28;20572;-71
2022/07/15 06:48:56;;;;;;;4.47;0.80;;;16.10;99.90;;;;;;4990578;28;20065;-71
2022/07/15 06:51:22;;;;;;;3.92;0.90;;;16.50;99.90;;;;;;4990409;28;20030;-70
2022/07/15 06:53:47;;;;;;;3.97;0.73;;;16.30;99.90;;;;;;4990403;28;20048;-70
2022/07/15 06:56:13;;;;;;;5.03;0.65;;;16.60;99.90;;;;;;4991517;28;20030;-70
2022/07/15 06:58:39;;;;;;;7.13;0.98;;;16.30;99.90;;;;;;5000863;28;20026;-71
2022/07/15 07:01:05;;;;;;;4.38;0.60;;;16.50;99.90;;;;;;4990744;28;20049;-71
2022/07/15 07:03:30;;;;;;;3.78;0.90;;;16.90;99.90;;;;;;4995448;28;20089;-71
2022/07/15 07:05:57;;;;;;;7.63;1.58;;;16.70;99.90;;;;;;4996663;28;20034;-71
2022/07/15 07:08:22;;;;;;;2.05;0.50;;;16.90;99.90;;;;;;4989810;28;20026;-70
2022/07/15 07:10:48;;;;;;;3.20;0.63;;;16.90;99.90;;;;;;4996274;28;20113;-70
2022/07/15 07:13:13;;;;;;;8.45;1.13;;;17.10;99.20;;;;;;4992364;28;20070;-73
2022/07/15 07:15:39;;;;;;;3.08;0.65;;;17.00;99.00;;;;;;4991396;28;20263;-70
2022/07/15 07:18:04;;;;;;;3.55;0.68;;;17.20;99.90;;;;;;5006427;28;20129;-70
2022/07/15 07:20:30;;;;;;;3.78;2.17;;;18.60;99.00;;;;;;4990288;28;20109;-70
2022/07/15 07:22:57;;;;;;;5.53;0.75;;;16.90;99.90;;;;;;4987352;28;20073;-70
2022/07/15 07:25:23;;;;;;;6.85;0.82;;;17.20;98.20;;;;;;4972894;28;20498;-70
2022/07/15 07:27:48;;;;;;;5.82;0.88;;;17.20;98.10;;;;;;4990165;28;20031;-70
2022/07/15 07:30:14;;;;;;;4.72;0.70;;;;;;;;;;4989688;28;20031;-70
2022/07/15 07:32:40;;;;;;;5.18;0.98;;;17.60;99.90;;;;;;4990255;28;20022;-70
2022/07/15 07:35:06;;;;;;;2.83;0.63;;;17.30;97.00;;;;;;4990548;28;20041;-71
2022/07/15 07:37:37;;;;;;;4.22;0.85;;;17.40;99.90;;;;;;4971856;28;20037;-70
2022/07/15 07:40:07;;;;;;;10.10;1.13;;;17.40;97.50;;;;;;4994526;28;20518;-71
2022/07/15 07:42:32;;;;;;;4.57;0.75;;;17.70;99.90;;;;;;4990165;28;20026;-70
2022/07/15 07:44:59;;;;;;;5.00;0.77;;;17.70;96.70;;;;;;4990391;28;20025;-70
2022/07/15 07:47:25;;;;;;;4.07;0.73;;;17.80;96.50;;;;;;4994117;28;20403;-70
2022/07/15 07:49:50;;;;;;;4.70;0.73;;;17.90;99.90;;;;;;4989931;28;20026;-70
2022/07/15 07:52:16;;;;;;;4.90;0.90;;;17.70;96.30;;;;;;4997855;28;20031;-70
2022/07/15 07:54:43;;;;;;;3.97;0.63;;;17.80;96.40;;;;;;4989947;28;20022;-70
2022/07/15 07:57:10;;;;;;;5.13;0.60;;;17.90;96.10;;;;;;4990243;28;20046;-70
2022/07/15 07:59:35;;;;;;;4.70;0.80;;;18.10;95.50;;;;;;4986244;28;20030;-69
2022/07/15 08:02:01;;;;;;;2.45;0.43;;;18.40;95.30;;;;;;4990158;28;20097;-70
2022/07/15 08:04:26;;;;;;;3.85;0.68;;;18.80;95.00;;;;;;4989759;28;20398;-70
2022/07/15 08:06:52;;;;;;;3.00;0.40;;;18.50;94.80;;;;;;4988801;28;20038;-70
2022/07/15 08:09:17;;;;;;;4.07;1.02;;;18.40;94.80;;;;;;4989594;28;20022;-71
2022/07/15 08:11:44;;;;;;;3.42;0.75;;;18.50;94.90;;;;;;4989527;28;20073;-70
2022/07/15 08:14:10;;;;;;;4.85;0.73;;;18.80;94.80;;;;;;4989492;28;20050;-70
2022/07/15 08:16:36;;;;;;;4.45;0.63;;;18.80;94.60;;;;;;4990061;28;20428;-70
2022/07/15 08:19:02;;;;;;;3.72;0.75;;;19.00;94.30;;;;;;4990087;28;20368;-71
2022/07/15 08:21:28;;;;;;;2.95;0.68;;;19.30;94.00;;;;;;4989045;28;20026;-70
2022/07/15 08:23:54;;;;;;;2.30;0.65;;;19.50;93.30;;;;;;5006811;28;20033;-71
2022/07/15 08:26:23;;;;;;;2.60;0.98;;;19.80;92.90;;;;;;5008966;28;20018;-70
2022/07/15 08:28:50;;;;;;;3.60;0.90;;;20.10;92.70;;;;;;4992156;28;20030;-70
2022/07/15 08:31:16;;;;;;;1.65;0.50;;;20.10;92.10;;;;;;4989556;28;20045;-71
2022/07/15 08:33:45;;;;;;;1.80;0.40;;;21.50;92.00;;;;;;4989739;28;20092;-71
2022/07/15 08:36:11;;;;;;;2.92;0.55;;;20.40;91.70;;;;;;4988890;28;20440;-70
2022/07/15 08:38:37;;;;;;;2.45;0.50;;;20.30;91.20;;;;;;5004311;28;20022;-70
2022/07/15 08:41:03;;;;;;;2.47;0.60;;;20.30;91.00;;;;;;5008141;28;20437;-70
2022/07/15 08:43:29;;;;;;;2.85;0.50;;;20.40;90.90;;;;;;4994404;28;20038;-69
2022/07/15 08:45:55;;;;;;;4.78;0.60;;;20.30;90.50;;;;;;4992757;28;20069;-70
2022/07/15 08:48:26;;;;;;;4.35;0.75;;;20.10;90.60;;;;;;4992800;28;20023;-70
2022/07/15 08:50:53;;;;;;;1.60;0.68;;;20.00;90.80;;;;;;4992584;28;20034;-70
2022/07/15 08:53:18;;;;;;;4.75;0.60;;;20.00;90.60;;;;;;4992866;28;20018;-70
2022/07/15 08:55:46;;;;;;;1.85;0.40;;;20.10;90.30;;;;;;4993128;28;20085;-70
2022/07/15 08:58:12;;;;;;;3.60;0.43;;;20.00;90.50;;;;;;4993078;28;20057;-70
2022/07/15 09:00:38;;;;;;;4.35;0.50;;;20.20;90.00;;;;;;4997609;28;20464;-70
2022/07/15 09:03:06;;;;;;;3.83;0.57;;;20.20;89.40;;;;;;4992874;28;20077;-70
2022/07/15 09:05:33;;;;;;;1.35;0.40;;;20.20;89.80;;;;;;4991843;28;20126;-70
2022/07/15 09:08:13;;;;;;;2.33;0.40;;;20.30;89.30;;;;;;4992842;28;20027;-70
2022/07/15 09:10:58;;;;;;;2.25;0.35;;;20.30;86.90;;;;;;4992531;28;20026;-70
2022/07/15 09:13:39;;;;;;;3.75;0.70;;;20.40;87.40;;;;;;4992174;28;20376;-70
2022/07/15 09:16:19;;;;;;;1.83;0.40;;;20.60;86.70;;;;;;4997685;28;20460;-70
2022/07/15 09:18:46;;;;;;;2.97;0.40;;;20.70;88.20;;;;;;4992232;28;20405;-70
2022/07/15 09:21:21;;;;;;;3.65;0.50;;;20.60;87.50;;;;;;4992327;28;20480;-70
2022/07/15 09:23:48;;;;;;;1.77;0.50;;;20.60;85.90;;;;;;5010503;28;20057;-70
2022/07/15 09:26:32;;;;;;;2.75;0.75;;;20.70;86.80;;;;;;5008606;28;20053;-71
2022/07/15 09:28:59;;;;;;;3.20;0.40;;;20.80;86.80;;;;;;4993934;28;20023;-71
2022/07/15 09:34:20;;;;;;;5.85;0.90;;;20.90;84.50;;;;;;4991177;28;20032;-72
2022/07/15 09:36:52;;;;;;;1.48;0.65;;;20.80;85.80;;;;;;4994525;28;20088;-72
2022/07/15 09:39:19;;;;;;;2.85;0.60;;;20.90;86.30;;;;;;5005937;28;20080;-71
2022/07/15 09:41:45;;;;;;;4.88;0.50;;;21.00;85.80;;;;;;4999955;28;20387;-72
2022/07/15 09:44:15;;;;;;;3.03;0.45;;;21.00;85.20;;;;;;5003452;28;20543;-71
2022/07/15 09:46:57;;;;;;;1.23;0.35;;;21.10;84.70;;;;;;5000848;28;20442;-71
2022/07/15 09:49:22;;;;;;;1.13;0.30;;;21.10;84.60;;;;;;5007563;28;20028;-72
2022/07/15 09:51:56;;;;;;;3.00;0.50;;;21.10;83.00;;;;;;5009818;28;20041;-71
2022/07/15 09:54:23;;;;;;;;;;;20.90;84.00;;;;;;5004984;28;20030;-72
2022/07/15 09:56:49;;;;;;;3.33;0.40;;;20.90;84.90;;;;;;4991214;28;19910;-72
2022/07/15 09:59:15;;;;;;;1.67;0.30;;;20.80;83.90;;;;;;4991461;28;20030;-72
2022/07/15 10:01:42;;;;;;;3.03;0.77;;;20.70;83.90;;;;;;4991605;28;20029;-72
2022/07/15 10:04:09;;;;;;;4.97;0.57;;;20.70;83.90;;;;;;4991521;28;20076;-71
2022/07/15 10:06:38;;;;;;;2.90;0.40;;;20.60;84.60;;;;;;4992301;28;20034;-70
2022/07/15 10:09:05;;;;;;;1.40;0.40;;;20.50;84.20;;;;;;4999094;28;20030;-69
2022/07/15 10:11:35;;;;;;;4.22;1.25;;;21.50;84.30;;;;;;4991724;28;20034;-70
2022/07/15 10:14:25;;;;;;;1.98;0.40;;;20.60;83.00;;;;;;4982191;28;20534;-70
2022/07/15 10:17:17;;;;;;;1.25;0.38;;;21.00;81.90;;;;;;4990957;28;20026;-71
2022/07/15 10:20:15;;;;;;;3.13;0.70;;;21.30;81.70;;;;;;4991405;28;20078;-70
2022/07/15 10:22:53;;;;;;;3.30;0.43;;;21.90;83.00;;;;;;4990615;28;20137;-71
2022/07/15 10:25:49;;;;;;;2.55;0.50;;;21.60;80.50;;;;;;5010695;28;20076;-70
2022/07/15 10:28:31;;;;;;;4.35;0.52;;;21.60;80.60;;;;;;4988407;28;20035;-70
2022/07/15 10:31:18;;;;;;;2.47;0.50;;;21.40;82.30;;;;;;5009840;28;20034;-70
2022/07/15 10:34:02;;;;;;;2.55;0.40;;;21.30;82.50;;;;;;4992981;28;20048;-70
2022/07/15 10:36:41;;;;;;;;;;;21.40;82.60;;;;;;4999949;28;20038;-70
2022/07/15 10:39:08;;;;;;;1.73;0.50;;;21.30;80.90;;;;;;5010427;28;19993;-71
2022/07/15 10:41:59;;;;;;;3.08;0.40;;;21.40;81.80;;;;;;5009583;28;20056;-71
2022/07/15 10:44:47;;;;;;;3.03;0.40;;;21.70;80.00;;;;;;4995670;28;20034;-71
2022/07/15 10:47:12;;;;;;;2.20;0.35;;;21.90;81.30;;;;;;5005634;28;20033;-70
2022/07/15 10:49:43;;;;;;;1.90;0.70;;;22.10;80.00;;;;;;4999567;28;20426;-70
2022/07/15 10:52:26;;;;;;;2.35;0.55;;;22.50;78.00;;;;;;5007562;28;20029;-71
2022/07/15 10:54:54;;;;;;;2.17;0.45;;;22.70;77.70;;;;;;4979210;28;20393;-70
2022/07/15 10:57:21;;;;;;;1.13;0.40;;;22.60;79.10;;;;;;4990316;28;20072;-70
2022/07/15 10:59:56;;;;;;;1.92;0.73;;;22.50;78.20;;;;;;4990616;28;20418;-70
2022/07/15 11:02:25;;;;;;;1.13;0.40;;;22.40;78.70;;;;;;4990199;28;20034;-70
2022/07/15 11:04:52;;;;;;;3.13;0.43;;;22.20;78.60;;;;;;4989718;28;20221;-69
2022/07/15 11:07:19;;;;;;;3.67;0.70;;;22.00;78.50;;;;;;4990403;28;20029;-69
2022/07/15 11:10:06;;;;;;;2.47;0.40;;;21.90;79.00;;;;;;4990401;28;20018;-69
2022/07/15 11:12:31;;;;;;;4.85;0.70;;;21.90;77.50;;;;;;4994608;28;20464;-70
2022/07/15 11:15:01;;;;;;;1.38;0.40;;;21.90;77.60;;;;;;4989933;28;20042;-69
2022/07/15 11:17:29;;;;;;;1.45;0.45;;;21.90;78.10;;;;;;4989917;28;20041;-69
2022/07/15 11:20:09;;;;;;;3.15;0.40;;;21.90;78.70;;;;;;4989965;28;20026;-69
2022/07/15 11:22:41;;;;;;;1.77;0.32;;;21.90;78.50;;;;;;4996644;28;20076;-71
2022/07/15 11:25:15;;;;;;;1.23;0.40;;;21.80;78.50;;;;;;5008469;28;20479;-69
2022/07/15 11:27:41;;;;;;;4.25;0.65;;;21.70;77.90;;;;;;4965378;28;20034;-70
2022/07/15 11:30:07;;;;;;;2.15;0.50;;;21.80;77.70;;;;;;4998911;28;20087;-70
2022/07/15 11:32:36;;;;;;;2.67;0.60;;;22.00;77.30;;;;;;4991089;28;20026;-70
2022/07/15 11:35:03;;;;;;;1.05;0.30;;;22.00;76.60;;;;;;4994356;28;20026;-70
2022/07/15 11:37:31;;;;;;;2.65;0.30;;;22.00;77.00;;;;;;4975778;28;20740;-70
2022/07/15 11:45:41;;;;;;;0.98;0.28;;;22.80;77.10;;;;;;4989121;28;20113;-71
2022/07/15 11:48:07;;;;;;;3.13;0.70;;;22.20;77.20;;;;;;4996519;28;20093;-71
2022/07/15 11:50:37;;;;;;;4.97;0.40;;;22.10;77.10;;;;;;4989679;28;20480;-71
2022/07/15 11:53:14;;;;;;;1.63;0.32;;;22.10;77.70;;;;;;4990111;28;20026;-70
2022/07/15 11:55:51;;;;;;;4.05;0.40;;;22.10;78.30;;;;;;4989889;28;20094;-70
2022/07/15 11:58:32;;;;;;;3.28;0.38;;;22.20;77.80;;;;;;4991894;28;20057;-70
2022/07/15 12:00:59;;;;;;;3.63;0.63;;;22.60;77.20;;;;;;5000535;28;20025;-71
2022/07/15 12:03:33;;;;;;;2.45;0.40;;;22.70;76.00;;;;;;5005132;28;20418;-71
2022/07/15 12:06:05;;;;;;;2.00;0.50;;;23.10;74.10;;;;;;5007161;28;20014;-71
2022/07/15 12:08:40;;;;;;;4.32;0.60;;;23.10;74.50;;;;;;4990029;28;20031;-69
2022/07/15 12:11:23;;;;;;;1.83;0.50;;;23.20;74.30;;;;;;4988977;28;20073;-70
2022/07/15 12:14:02;;;;;;;1.42;0.50;;;23.20;74.20;;;;;;4989280;28;20057;-70
2022/07/15 12:16:30;;;;;;;5.68;0.60;;;23.00;71.80;;;;;;4992611;28;20053;-70
2022/07/15 12:18:58;;;;;;;2.13;0.40;;;22.70;74.00;;;;;;5004385;28;20553;-71
2022/07/15 12:21:24;;;;;;;3.70;0.57;;;22.60;74.30;;;;;;4997660;28;20022;-70
2022/07/15 12:24:07;;;;;;;1.60;0.30;;;22.30;74.60;;;;;;5010408;28;20018;-70
2022/07/15 12:26:40;;;;;;;1.63;0.37;;;22.50;76.00;;;;;;5013210;28;20383;-71
2022/07/15 12:29:08;;;;;;;1.02;0.43;;;22.50;75.70;;;;;;4998440;28;20273;-70
2022/07/15 12:31:37;;;;;;;1.90;0.32;;;22.50;75.20;;;;;;5012634;28;20368;-71
2022/07/15 12:34:03;;;;;;;1.30;0.40;;;22.50;75.00;;;;;;5013579;28;20032;-71
2022/07/15 12:36:32;;;;;;;2.22;0.20;;;22.50;74.50;;;;;;5013189;28;20029;-72
2022/07/15 12:39:10;;;;;;;1.80;0.40;;;22.50;75.00;;;;;;5012943;28;20072;-71
2022/07/15 12:41:37;;;;;;;1.55;0.65;;;22.50;73.00;;;;;;5011972;28;20026;-70
2022/07/15 12:44:04;;;;;;;4.53;0.32;;;22.50;74.40;;;;;;4997636;28;20033;-70
2022/07/15 12:46:51;;;;;;;3.30;0.65;;;22.70;74.90;;;;;;4993238;28;20026;-69
2022/07/15 12:49:52;;;;;;;5.43;0.40;;;22.70;74.60;;;;;;4992874;28;20026;-69
2022/07/15 12:52:18;;;;;;;1.85;0.20;;;22.90;74.10;;;;;;4928196;29;20043;-69
2022/07/15 12:54:43;;;;;;;2.95;0.25;;;22.80;72.90;;;;;;4914785;29;20062;-69
2022/07/15 12:57:34;;;;;;;3.20;0.50;;;22.90;73.20;;;;;;4925829;29;20385;-69
2022/07/15 13:00:10;;;;;;;1.52;0.40;;;23.00;72.30;;;;;;4922769;29;20511;-69
2022/07/15 13:02:58;;;;;;;3.05;0.25;;;23.10;73.40;;;;;;4920319;29;20095;-69
2022/07/15 13:05:24;;;;;;;2.03;0.50;;;23.10;73.40;;;;;;4914277;29;20063;-69
2022/07/15 13:07:50;;;;;;;0.80;0.30;;;23.10;73.00;;;;;;4912612;29;20044;-69
2022/07/15 13:10:16;;;;;;;2.45;0.30;;;23.20;72.60;;;;;;4912325;29;20122;-69
2022/07/15 13:12:42;;;;;;;2.33;0.82;;;23.20;72.40;;;;;;4912429;29;20501;-69
2022/07/15 13:15:08;;;;;;;3.90;0.50;;;23.30;71.90;;;;;;4913142;29;20130;-69